Latest Weather Observations for Camooweal

IDQ60801

Issued at 2:51 pm EST Wednesday 19 June 2019 (issued every 10 minutes, with the page automatically refreshed every 10 minutes)

About weather observations | Map of weather stations | Latest weather observations for QLD | Other Formats
Station Details ID: 037010 Name: CAMOOWEAL TOWNSHIP Lat: -19.92 Lon: 138.12 Height: 231.2 m
Data from the previous 72 hours. | See also: Recent months at Camooweal
Date/Time
EST
Temp
°C
App
Temp
°C
Dew
Point
°C
Rel
Hum
%
Delta-T
°C
Wind Press
QNH
hPa
Press
MSL
hPa
Rain since
9am
mm
Dir  Spd
km/h
Gust
km/h
Spd
kts
Gust
kts
19/02:30pm 21.9 16.1 -0.1 23 10.0 SSE 20 32 11 17 1018.0 1017.5 0.0
19/02:00pm 21.7 16.5 0.3 24 9.7 SSE 17 28 9 15 1017.9 1017.4 0.0
19/01:30pm 20.9 15.1 0.2 25 9.4 SE 20 32 11 17 1018.4 1017.9 0.0
19/01:00pm 20.9 15.3 1.2 27 9.1 SE 20 30 11 16 1019.2 1018.7 0.0
19/12:30pm 20.2 14.2 1.1 28 8.7 SE 22 32 12 17 1019.6 1019.1 0.0
19/12:00pm 20.2 14.0 2.1 30 8.4 SSE 24 33 13 18 1020.5 1020.0 0.0
19/11:30am 18.9 12.7 1.9 32 7.8 SSE 24 35 13 19 1021.0 1020.5 0.0
19/11:00am 18.2 11.9 1.7 33 7.5 SE 24 33 13 18 1021.4 1020.9 0.0
19/10:30am 17.1 10.8 1.5 35 7.0 SE 24 33 13 18 1021.8 1021.3 0.0
19/10:00am 15.7 9.4 1.8 39 6.2 SE 24 33 13 18 1021.7 1021.2 0.0
19/09:30am 14.7 8.5 2.3 43 5.6 SSE 24 33 13 18 1021.5 1021.0 0.0
19/09:00am 12.4 6.9 1.7 48 4.6 SSE 20 30 11 16 1021.2 1020.7 0.0
19/08:30am 11.0 6.0 1.5 52 4.0 SSE 17 26 9 14 1021.3 1020.8 0.0
19/08:00am 9.3 4.6 1.2 57 3.4 S 15 20 8 11 1021.2 1020.7 0.0
19/07:30am 6.9 2.9 0.4 63 2.6 S 11 13 6 7 1021.1 1020.6 0.0
19/07:00am 6.1 2.0 -0.4 63 2.5 S 11 13 6 7 1020.8 1020.3 0.0
19/06:30am 5.4 1.1 -1.7 60 2.6 SSW 11 13 6 7 1020.9 1020.4 0.0
19/06:00am 6.2 2.0 -1.0 60 2.7 SSW 11 13 6 7 1020.6 1020.1 0.0
19/05:30am 6.5 2.6 -1.2 58 2.9 SSW 9 11 5 6 1020.4 1019.9 0.0
19/05:00am 6.9 2.7 -1.0 57 3.0 S 11 13 6 7 1020.3 1019.8 0.0
19/04:30am 6.9 2.6 -1.7 54 3.3 SSW 11 13 6 7 1020.3 1019.8 0.0
19/04:00am 8.5 3.9 -0.8 52 3.6 S 13 15 7 8 1020.5 1020.0 0.0
19/03:30am 9.4 4.9 -0.5 50 4.0 S 13 15 7 8 1020.4 1019.9 0.0
19/03:00am 10.0 5.5 -0.5 48 4.2 SSE 13 15 7 8 1020.4 1019.9 0.0
19/02:30am 10.4 6.3 -0.4 47 4.4 SSE 11 13 6 7 1020.5 1020.0 0.0
19/02:00am 10.8 5.9 -0.3 46 4.5 S 15 17 8 9 1020.8 1020.3 0.0
19/01:30am 11.4 6.9 -0.4 44 4.8 SSE 13 17 7 9 1021.0 1020.5 0.0
19/01:00am 11.2 7.0 -0.9 43 4.9 S 11 13 6 7 1021.2 1020.7 0.0
19/12:30am 12.4 7.8 -0.8 40 5.4 S 13 17 7 9 1021.2 1020.7 0.0
19/12:00am 13.0 8.1 -0.6 39 5.6 S 15 20 8 11 1021.0 1020.5 0.0
 
Date/Time
EST
Temp
°C
App
Temp
°C
Dew
Point
°C
Rel
Hum
%
Delta-T
°C
Wind Press
QNH
hPa
Press
MSL
hPa
Rain since
9am
mm
Dir  Spd
km/h
Gust
km/h
Spd
kts
Gust
kts
18/11:30pm 13.1 7.8 -0.9 38 5.8 S 17 20 9 11 1021.0 1020.5 0.0
18/11:00pm 12.7 8.1 -1.2 38 5.6 S 13 15 7 8 1021.2 1020.7 0.0
18/10:30pm 12.9 7.9 -1.4 37 5.8 S 15 17 8 9 1021.3 1020.8 0.0
18/10:00pm 13.3 8.6 -1.8 35 6.1 S 13 15 7 8 1021.2 1020.7 0.0
18/09:30pm 14.5 9.5 -1.2 34 6.5 S 15 17 8 9 1021.1 1020.6 0.0
18/09:00pm 15.5 10.9 -1.1 32 6.9 S 13 17 7 9 1020.8 1020.3 0.0
18/08:30pm 16.5 11.1 -1.1 30 7.5 S 17 22 9 12 1020.5 1020.0 0.0
18/08:00pm 17.0 11.6 -1.1 29 7.7 S 17 22 9 12 1020.1 1019.6 0.0
18/07:30pm 17.7 12.3 -1.0 28 8.0 SSE 17 24 9 13 1019.9 1019.4 0.0
18/07:00pm 18.5 12.6 -0.8 27 8.4 S 20 24 11 13 1019.6 1019.1 0.0
18/06:30pm 19.3 13.0 -1.2 25 8.9 S 22 30 12 16 1019.3 1018.8 0.0
18/06:00pm 20.0 12.5 -1.2 24 9.2 S 28 39 15 21 1019.0 1018.5 0.0
18/05:30pm 20.9 13.0 -1.6 22 9.8 S 30 39 16 21 1018.8 1018.3 0.0
18/05:00pm 21.5 13.7 -1.1 22 10.0 SSE 30 41 16 22 1018.6 1018.1 0.0
18/04:30pm 21.8 13.3 -1.5 21 10.3 SSE 33 46 18 25 1018.4 1017.9 0.0
18/04:00pm 22.3 14.1 -1.1 21 10.4 S 32 43 17 23 1018.2 1017.7 0.0
18/03:30pm 22.3 14.1 -1.1 21 10.4 S 32 43 17 23 1018.3 1017.8 0.0
18/03:00pm 22.2 13.9 -0.5 22 10.2 S 33 46 18 25 1018.6 1018.1 0.0
18/02:59pm 22.3 14.0 -0.4 22 10.3 S 33 46 18 25 1018.5 1018.0 0.0
18/02:30pm 22.6 14.5 -0.2 22 10.4 SSE 32 44 17 24 1018.8 1018.3 0.0
18/02:00pm 22.1 14.8 0.0 23 10.0 SSE 28 39 15 21 1019.2 1018.7 0.0
18/01:30pm 21.6 13.9 0.2 24 9.7 SSE 30 41 16 22 1019.6 1019.1 0.0
18/01:00pm 21.1 13.8 0.3 25 9.4 SSE 28 39 15 21 1020.3 1019.8 0.0
18/12:30pm 21.0 13.8 0.8 26 9.3 SSE 28 39 15 21 1020.9 1020.4 0.0
18/12:00pm 20.0 13.2 0.5 27 8.8 SSE 26 35 14 19 1021.4 1020.9 0.0
18/11:30am 19.1 12.3 0.7 29 8.3 SSE 26 39 14 21 1021.8 1021.3 0.0
18/11:00am 18.5 11.3 0.6 30 8.0 SSE 28 37 15 20 1022.4 1021.9 0.0
18/10:30am 17.4 10.2 0.6 32 7.4 SSE 28 37 15 20 1022.6 1022.1 0.0
18/10:00am 16.5 10.2 1.4 36 6.7 SSE 24 33 13 18 1022.7 1022.2 0.0
18/09:30am 14.6 8.2 0.8 39 6.0 S 24 33 13 18 1022.7 1022.2 0.0
18/09:00am 12.9 7.3 1.0 44 5.1 S 20 26 11 14 1022.6 1022.1 0.0
18/08:30am 10.1 6.2 1.0 53 3.8 SSW 11 19 6 10 1022.2 1021.7 0.0
18/08:00am 6.9 3.1 -0.8 58 3.0 SSW 9 13 5 7 1021.9 1021.4 0.0
18/07:30am 5.9 1.7 -0.8 62 2.6 SW 11 11 6 6 1021.4 1020.9 0.0
18/07:00am 5.9 2.0 -1.3 60 2.7 SSW 9 9 5 5 1021.1 1020.6 0.0
18/06:30am 6.4 2.6 -1.0 59 2.8 SSW 9 11 5 6 1020.8 1020.3 0.0
18/06:00am 7.6 4.3 -0.1 58 3.0 SSW 7 9 4 5 1020.7 1020.2 0.0
18/05:30am 8.1 4.3 -0.6 54 3.4 S 9 11 5 6 1020.7 1020.2 0.0
18/05:00am 9.9 5.5 0.3 51 3.9 S 13 15 7 8 1020.5 1020.0 0.0
18/04:30am 10.9 6.1 0.3 48 4.4 SSE 15 19 8 10 1020.5 1020.0 0.0
18/04:00am 11.3 6.5 0.1 46 4.6 SSE 15 19 8 10 1020.5 1020.0 0.0
18/03:30am 11.5 6.2 -0.6 43 4.9 SSE 17 22 9 12 1020.5 1020.0 0.0
18/03:00am 11.9 6.6 -0.6 42 5.1 S 17 24 9 13 1020.6 1020.1 0.0
18/02:30am 11.2 6.6 -0.9 43 4.9 S 13 15 7 8 1020.8 1020.3 0.0
18/02:00am 11.2 6.6 -1.2 42 5.0 S 13 15 7 8 1020.9 1020.4 0.0
18/01:30am 11.8 7.2 -1.3 40 5.3 S 13 17 7 9 1021.1 1020.6 0.0
18/01:00am 12.1 6.7 -1.4 39 5.4 S 17 20 9 11 1021.1 1020.6 0.0
18/12:30am 11.9 6.8 -1.6 39 5.4 S 15 19 8 10 1021.0 1020.5 0.0
18/12:00am 11.6 6.4 -2.6 37 5.5 SSW 15 20 8 11 1021.0 1020.5 0.0
 
Date/Time
EST
Temp
°C
App
Temp
°C
Dew
Point
°C
Rel
Hum
%
Delta-T
°C
Wind Press
QNH
hPa
Press
MSL
hPa
Rain since
9am
mm
Dir  Spd
km/h
Gust
km/h
Spd
kts
Gust
kts
17/11:30pm 11.6 6.8 -2.6 37 5.5 SSW 13 17 7 9 1020.9 1020.4 0.0
17/11:00pm 11.5 7.1 -2.7 37 5.5 SSW 11 13 6 7 1020.8 1020.3 0.0
17/10:30pm 12.5 8.0 -2.9 34 6.0 SSW 11 13 6 7 1020.7 1020.2 0.0
17/10:00pm 13.8 9.4 -2.6 32 6.5 S 11 13 6 7 1020.7 1020.2 0.0
17/09:30pm 15.0 10.6 -2.4 30 7.1 S 11 13 6 7 1020.7 1020.2 0.0
17/09:00pm 17.1 12.4 -2.0 27 8.0 S 13 17 7 9 1020.4 1019.9 0.0
17/08:30pm 18.3 12.9 -1.5 26 8.5 S 17 20 9 11 1020.1 1019.6 0.0
17/08:00pm 18.7 13.7 -1.2 26 8.6 S 15 19 8 10 1019.6 1019.1 0.0
17/07:30pm 19.6 14.6 -0.9 25 9.0 S 15 19 8 10 1019.3 1018.8 0.0
17/07:00pm 20.9 15.2 -0.4 24 9.5 S 19 24 10 13 1018.7 1018.2 0.0
17/06:30pm 21.8 15.2 -0.2 23 9.9 S 24 32 13 17 1018.3 1017.8 0.0
17/06:00pm 22.9 16.5 0.7 23 10.3 S 24 33 13 18 1017.9 1017.4 0.0
17/05:30pm 24.1 17.0 3.4 26 10.2 S 30 39 16 21 1017.7 1017.2 0.0
17/05:00pm 25.1 19.1 5.3 28 10.1 S 26 35 14 19 1017.5 1017.0 0.0
17/04:30pm 25.5 19.1 5.1 27 10.5 SSE 28 35 15 19 1017.4 1016.9 0.0
17/04:00pm 26.2 20.7 5.7 27 10.6 S 24 35 13 19 1017.4 1016.9 0.0
17/03:30pm 26.0 19.6 5.0 26 10.8 S 28 35 15 19 1017.3 1016.8 0.0
17/03:00pm 26.4 19.9 4.8 25 11.1 S 28 35 15 19 1017.7 1017.2 0.0
17/02:30pm 26.0 19.6 5.0 26 10.8 S 28 35 15 19 1018.0 1017.5 0.0
17/02:00pm 26.1 20.1 5.1 26 10.8 S 26 39 14 21 1018.5 1018.0 0.0
17/01:30pm 25.4 19.7 5.1 27 10.4 S 24 37 13 20 1019.2 1018.7 0.0
17/01:00pm 24.9 19.6 5.2 28 10.1 SSE 22 33 12 18 1019.9 1019.4 0.0
17/12:30pm 23.9 18.6 4.8 29 9.6 SSE 22 32 12 17 1020.5 1020.0 0.0
17/12:00pm 23.7 18.9 4.6 29 9.6 SSE 19 26 10 14 1021.1 1020.6 0.0
17/11:30am 22.8 17.8 4.8 31 9.0 SSE 20 26 11 14 1021.3 1020.8 0.0
17/11:00am 21.5 16.7 4.6 33 8.3 SSE 19 28 10 15 1021.6 1021.1 0.0
17/10:30am 20.6 15.8 4.6 35 7.9 SE 19 24 10 13 1021.8 1021.3 0.0
17/10:00am 18.8 13.9 4.2 38 7.0 SSE 19 24 10 13 1021.8 1021.3 0.0
17/09:30am 18.0 13.0 4.6 41 6.5 SE 20 28 11 15 1021.8 1021.3 0.0
17/09:00am 16.8 12.0 4.5 44 5.8 SSE 19 26 10 14 1021.9 1021.4 0.0
17/08:30am 15.3 10.9 4.7 49 5.0 SSE 17 22 9 12 1021.5 1021.0 0.0
17/08:00am 14.2 10.2 4.8 53 4.4 S 15 20 8 11 1021.2 1020.7 0.0
17/07:30am 14.0 10.4 5.1 55 4.2 S 13 17 7 9 1020.8 1020.3 0.0
17/07:00am 14.3 10.8 5.4 55 4.2 S 13 17 7 9 1020.5 1020.0 0.0
17/06:30am 14.8 11.0 5.6 54 4.4 S 15 20 8 11 1020.2 1019.7 0.0
17/06:00am 15.6 11.0 5.8 52 4.7 SSE 19 26 10 14 1020.0 1019.5 0.0
17/05:30am 15.7 11.2 6.2 53 4.7 SSE 19 26 10 14 1019.6 1019.1 0.0
17/05:00am 15.9 11.4 6.3 53 4.7 SSE 19 26 10 14 1019.5 1019.0 0.0
17/04:30am 16.2 11.8 6.6 53 4.8 SSE 19 26 10 14 1019.8 1019.2 0.0
17/04:00am 16.4 12.1 6.8 53 4.8 SSE 19 26 10 14 1019.4 1018.9 0.0
17/03:30am 16.8 12.3 6.9 52 5.0 S 20 28 11 15 1019.5 1019.0 0.0
17/03:00am 17.3 13.0 7.1 51 5.1 S 19 26 10 14 1019.6 1019.1 0.0
17/02:30am 17.4 13.2 7.5 52 5.0 S 19 24 10 13 1019.8 1019.2 0.0
17/02:00am 17.5 13.8 7.8 53 5.0 S 17 22 9 12 1020.0 1019.5 0.0
17/01:30am 17.6 14.0 8.2 54 4.9 SSE 17 26 9 14 1019.9 1019.4 0.0
17/01:00am 17.9 13.7 8.2 53 5.0 SSE 20 26 11 14 1020.1 1019.6 0.0
17/12:30am 18.3 13.7 8.3 52 5.2 S 22 30 12 16 1020.1 1019.6 0.0
17/12:00am 18.9 13.3 8.8 52 5.3 S 28 35 15 19 1020.1 1019.6 0.0
 
Date/Time
EST
Temp
°C
App
Temp
°C
Dew
Point
°C
Rel
Hum
%
Delta-T
°C
Wind Press
QNH
hPa
Press
MSL
hPa
Rain since
9am
mm
Dir  Spd
km/h
Gust
km/h
Spd
kts
Gust
kts
16/11:30pm 19.3 15.0 9.5 53 5.2 S 22 30 12 16 1020.1 1019.6 0.0
16/11:00pm 19.6 15.6 10.3 55 5.0 S 22 33 12 18 1020.2 1019.7 0.0
16/10:30pm 20.3 16.5 11.0 55 5.1 S 22 32 12 17 1020.2 1019.7 0.0
16/10:00pm 20.8 17.2 11.7 56 5.1 SSE 22 32 12 17 1019.9 1019.4 0.0
16/09:30pm 21.0 17.9 12.2 57 5.0 S 20 24 11 13 1019.8 1019.2 0.0
16/09:00pm 21.5 18.6 12.4 56 5.2 SSE 19 24 10 13 1019.4 1018.9 0.0
16/08:30pm 22.0 18.2 12.3 54 5.5 S 24 32 13 17 1019.0 1018.5 0.0
16/08:00pm 22.4 18.8 11.8 51 6.0 S 22 30 12 16 1018.8 1018.3 0.0
16/07:30pm 23.1 18.3 11.5 48 6.6 S 28 41 15 22 1018.4 1017.9 0.0
16/07:00pm 24.0 19.8 11.0 44 7.3 S 24 32 13 17 1017.9 1017.4 0.0
16/06:30pm 24.8 20.8 10.3 40 8.1 S 22 32 12 17 1017.6 1017.1 0.0
16/06:00pm 25.9 20.9 9.7 36 9.0 S 26 35 14 19 1017.1 1016.6 0.0
16/05:30pm 27.5 23.3 8.4 30 10.5 SSE 20 28 11 15 1016.9 1016.4 0.0
16/05:00pm 28.0 23.8 8.3 29 10.8 SSE 20 30 11 16 1016.5 1016.0 0.0
16/04:30pm 28.6 24.7 8.8 29 11.0 SSE 19 32 10 17 1016.4 1015.9 0.0
16/04:00pm 28.5 24.4 8.7 29 11.0 SSE 20 28 11 15 1016.4 1015.9 0.0
16/03:30pm 28.5 24.4 8.7 29 11.0 ESE 20 30 11 16 1016.5 1016.0 0.0
16/03:00pm 28.4 24.5 8.7 29 10.9 SE 19 32 10 17 1016.7 1016.2 0.0

Other formats

Comma delimited format used in spreadsheet applications
http://www.bom.gov.au/fwo/IDQ60801/IDQ60801.94255.axf

JavaScript Object Notation format (JSON) in row-major order
http://www.bom.gov.au/fwo/IDQ60801/IDQ60801.94255.json

Data quality

Most of these data are generated automatically and are frequently updated. Quality checks on data are not normally performed. It is possible for incorrect values to appear. Refer to information at About Latest Weather Observations and please check the disclaimer before using these data.